createdAt,value
2023-05-14T00:02:06.492Z,99146.31
2023-05-14T00:04:33.726Z,99140.00
2023-05-14T00:07:00.943Z,99134.13
2023-05-14T00:09:28.053Z,99130.97
2023-05-14T00:11:54.818Z,99124.66
2023-05-14T00:14:22.016Z,99131.56
2023-05-14T00:16:48.930Z,99115.69
2023-05-14T00:19:15.970Z,99120.53
2023-05-14T00:21:42.775Z,99125.25
2023-05-14T00:24:09.868Z,99133.06
2023-05-14T00:26:36.562Z,99125.59
2023-05-14T00:29:03.553Z,99124.34
2023-05-14T00:31:30.598Z,99131.19
2023-05-14T00:33:57.622Z,99126.31
2023-05-14T00:36:24.310Z,99127.72
2023-05-14T00:38:51.383Z,99127.28
2023-05-14T00:41:18.156Z,99133.13
2023-05-14T00:43:45.363Z,99144.97
2023-05-14T00:46:12.585Z,99139.56
2023-05-14T00:48:39.669Z,99141.38
2023-05-14T00:51:06.727Z,99144.66
2023-05-14T00:53:33.838Z,99142.22
2023-05-14T00:56:00.739Z,99138.47
2023-05-14T00:58:27.713Z,99146.44
2023-05-14T01:00:54.482Z,99137.72
2023-05-14T01:03:21.627Z,99145.88
2023-05-14T01:06:06.829Z,99146.28
2023-05-14T01:08:59.596Z,99143.25
2023-05-14T01:11:47.010Z,99137.84
2023-05-14T01:14:21.617Z,99139.22
2023-05-14T01:16:53.179Z,99137.34
2023-05-14T01:19:43.988Z,99133.78
2023-05-14T01:22:11.175Z,99138.75
2023-05-14T01:24:38.232Z,99135.31
2023-05-14T01:27:08.039Z,99133.59
2023-05-14T01:29:35.469Z,99132.47
2023-05-14T01:32:02.233Z,99127.31
2023-05-14T01:34:29.261Z,99127.97
2023-05-14T01:36:56.048Z,99126.16
2023-05-14T01:39:23.252Z,99125.41
2023-05-14T01:41:49.956Z,99123.25
2023-05-14T01:44:17.171Z,99127.31
2023-05-14T01:46:43.886Z,99131.63
2023-05-14T01:49:10.954Z,99128.72
2023-05-14T01:51:37.909Z,99124.91
2023-05-14T01:54:05.010Z,99128.13
2023-05-14T01:56:31.713Z,99116.81
2023-05-14T01:58:58.705Z,99120.50
2023-05-14T02:01:26.264Z,99120.03
2023-05-14T02:03:53.351Z,99127.06
2023-05-14T02:06:20.076Z,99121.16
2023-05-14T02:08:47.136Z,99112.91
2023-05-14T02:11:14.008Z,99112.03
2023-05-14T02:13:41.140Z,99113.41
2023-05-14T02:16:08.213Z,99109.22
2023-05-14T02:18:35.409Z,99109.38
2023-05-14T02:21:02.232Z,99102.63
2023-05-14T02:23:40.512Z,99106.94
2023-05-14T02:26:09.642Z,99094.75
2023-05-14T02:28:36.844Z,99095.44
2023-05-14T02:31:03.602Z,99096.31
2023-05-14T02:33:30.852Z,99096.28
2023-05-14T02:35:57.622Z,99086.53
2023-05-14T02:38:25.724Z,99088.78
2023-05-14T02:40:52.604Z,99077.09
2023-05-14T02:43:19.629Z,99078.25
2023-05-14T02:45:46.944Z,99076.03
2023-05-14T02:48:14.221Z,99071.84
2023-05-14T02:50:40.932Z,99065.84
2023-05-14T02:53:08.736Z,99061.94
2023-05-14T02:55:35.632Z,99060.69
2023-05-14T02:58:02.654Z,99060.69
2023-05-14T03:00:29.392Z,99057.38
2023-05-14T03:02:56.806Z,99057.13
2023-05-14T03:05:23.958Z,99048.78
2023-05-14T03:07:53.754Z,99064.56
2023-05-14T03:10:20.837Z,99060.00
2023-05-14T03:12:47.958Z,99063.13
2023-05-14T03:15:14.703Z,99062.22
2023-05-14T03:17:41.847Z,99058.78
2023-05-14T03:20:08.939Z,99057.09
2023-05-14T03:22:35.906Z,99058.19
2023-05-14T03:25:02.654Z,99061.63
2023-05-14T03:27:29.613Z,99060.31
2023-05-14T03:29:56.298Z,99054.16
2023-05-14T03:32:23.369Z,99058.69
2023-05-14T03:34:51.635Z,99066.34
2023-05-14T03:37:18.629Z,99056.00
2023-05-14T03:39:45.429Z,99056.78
2023-05-14T03:42:12.627Z,99064.00
2023-05-14T03:44:39.313Z,99061.69
2023-05-14T03:47:06.356Z,99059.38
2023-05-14T03:49:33.261Z,99060.34
2023-05-14T03:52:00.371Z,99058.66
2023-05-14T03:54:27.132Z,99052.34
2023-05-14T03:56:54.174Z,99054.47
2023-05-14T03:59:20.857Z,99054.22
2023-05-14T04:01:47.933Z,99053.59
2023-05-14T04:04:14.759Z,99053.09
2023-05-14T04:06:41.814Z,99052.97
2023-05-14T04:09:08.512Z,99052.13
2023-05-14T04:11:35.570Z,99048.66
2023-05-14T04:14:02.394Z,99049.53
2023-05-14T04:16:29.501Z,99052.63
2023-05-14T04:18:56.304Z,99059.50
2023-05-14T04:21:23.346Z,99053.59
2023-05-14T04:23:51.632Z,99056.44
2023-05-14T04:26:18.648Z,99058.78
2023-05-14T04:28:45.738Z,99055.69
2023-05-14T04:31:12.832Z,99060.63
2023-05-14T04:33:39.960Z,99062.69
2023-05-14T04:36:07.267Z,99065.75
2023-05-14T04:38:34.070Z,99068.09
2023-05-14T04:41:01.051Z,99064.41
2023-05-14T04:43:27.713Z,99067.00
2023-05-14T04:45:54.789Z,99066.34
2023-05-14T04:48:21.722Z,99074.69
2023-05-14T04:50:48.758Z,99059.41
2023-05-14T04:53:15.477Z,99062.63
2023-05-14T04:55:42.512Z,99058.31
2023-05-14T04:58:09.281Z,99058.78
2023-05-14T05:00:36.374Z,99047.84
2023-05-14T05:03:03.423Z,99053.72
2023-05-14T05:05:30.695Z,99061.59
2023-05-14T05:07:57.401Z,99069.34
2023-05-14T05:10:24.714Z,99066.38
2023-05-14T05:12:51.657Z,99069.28
2023-05-14T05:15:18.680Z,99070.75
2023-05-14T05:17:45.875Z,99065.69
2023-05-14T05:20:13.364Z,99062.84
2023-05-14T05:22:40.169Z,99062.94
2023-05-14T05:25:09.075Z,99064.38
2023-05-14T05:27:35.890Z,99072.81
2023-05-14T05:30:04.021Z,99075.28
2023-05-14T05:32:31.138Z,99072.78
2023-05-14T05:34:58.219Z,99062.53
2023-05-14T05:37:24.932Z,99062.97
2023-05-14T05:39:52.039Z,99069.47
2023-05-14T05:42:18.746Z,99065.53
2023-05-14T05:44:45.866Z,99063.00
2023-05-14T05:47:12.584Z,99056.03
2023-05-14T05:49:39.570Z,99053.91
2023-05-14T05:52:06.494Z,99062.38
2023-05-14T05:54:33.728Z,99055.97
2023-05-14T05:57:00.727Z,99048.91
2023-05-14T05:59:27.788Z,99052.06
2023-05-14T06:01:54.552Z,99045.09
2023-05-14T06:04:21.680Z,99037.53
2023-05-14T06:06:48.410Z,99030.72
2023-05-14T06:09:16.031Z,99039.28
2023-05-14T06:11:42.811Z,99036.75
2023-05-14T06:14:09.844Z,99032.72
2023-05-14T06:16:36.711Z,99037.47
2023-05-14T06:19:03.799Z,99031.50
2023-05-14T06:21:30.625Z,99028.50
2023-05-14T06:23:57.670Z,99027.66
2023-05-14T06:26:24.409Z,99033.25
2023-05-14T06:28:51.439Z,99021.38
2023-05-14T06:31:18.755Z,99024.78
2023-05-14T06:33:45.745Z,99033.09
2023-05-14T06:36:12.455Z,99037.41
2023-05-14T06:38:39.505Z,99038.53
2023-05-14T06:41:06.233Z,99035.25
2023-05-14T06:43:33.307Z,99027.78
2023-05-14T06:46:00.291Z,99021.03
2023-05-14T06:48:29.447Z,99028.47
2023-05-14T06:50:56.323Z,99026.03
2023-05-14T06:53:23.408Z,99021.28
2023-05-14T06:55:50.808Z,99022.44
2023-05-14T06:58:17.860Z,99026.13
2023-05-14T07:00:44.615Z,99026.53
2023-05-14T07:03:11.672Z,99040.78
2023-05-14T07:05:38.489Z,99027.44
2023-05-14T07:08:05.692Z,99030.84
2023-05-14T07:10:32.759Z,99019.91
2023-05-14T07:12:59.747Z,99025.19
2023-05-14T07:15:26.537Z,99028.72
2023-05-14T07:17:53.587Z,99031.00
2023-05-14T07:20:20.546Z,99031.38
2023-05-14T07:22:48.410Z,99035.59
2023-05-14T07:25:15.218Z,99037.75
2023-05-14T07:27:42.208Z,99034.97
2023-05-14T07:30:09.191Z,99039.66
2023-05-14T07:32:36.190Z,99031.06
2023-05-14T07:35:03.042Z,99033.66
2023-05-14T07:37:30.129Z,99033.72
2023-05-14T07:39:56.861Z,99030.38
2023-05-14T07:42:35.027Z,99021.56
2023-05-14T07:45:03.586Z,99020.47
2023-05-14T07:47:30.830Z,99013.03
2023-05-14T07:49:57.776Z,99012.25
2023-05-14T07:52:24.977Z,99005.53
2023-05-14T07:54:52.068Z,99005.59
2023-05-14T07:57:19.869Z,98993.34
2023-05-14T07:59:47.799Z,98984.03
2023-05-14T08:02:16.225Z,98982.69
2023-05-14T08:04:43.211Z,98980.69
2023-05-14T08:07:10.332Z,98985.00
2023-05-14T08:09:37.149Z,98975.28
2023-05-14T08:12:04.498Z,98974.31
2023-05-14T08:14:31.200Z,98976.53
2023-05-14T08:16:58.355Z,98963.84
2023-05-14T08:19:27.383Z,98963.81
2023-05-14T08:21:54.627Z,98960.94
2023-05-14T08:24:21.436Z,98962.69
2023-05-14T08:26:48.528Z,98957.41
2023-05-14T08:29:16.589Z,98955.50
2023-05-14T08:31:44.060Z,98959.09
2023-05-14T08:34:10.889Z,98945.78
2023-05-14T08:36:38.828Z,98941.34
2023-05-14T08:39:07.780Z,98941.13
2023-05-14T08:41:35.045Z,98937.91
2023-05-14T08:44:14.955Z,98944.88
2023-05-14T08:46:42.009Z,98946.09
2023-05-14T08:49:16.817Z,98938.53
2023-05-14T08:51:49.832Z,98940.19
2023-05-14T08:54:17.784Z,98933.84
2023-05-14T08:56:46.322Z,98933.66
2023-05-14T08:59:13.320Z,98936.34
2023-05-14T09:01:44.618Z,98931.38
2023-05-14T09:04:11.547Z,98931.16
2023-05-14T09:06:38.682Z,98922.03
2023-05-14T09:09:05.930Z,98923.34
2023-05-14T09:11:33.075Z,98921.38
2023-05-14T09:13:59.836Z,98925.81
2023-05-14T09:16:27.012Z,98924.91
2023-05-14T09:18:54.330Z,98929.81
2023-05-14T09:21:21.383Z,98934.53
2023-05-14T09:23:49.774Z,98928.47
2023-05-14T09:26:17.590Z,98932.88
2023-05-14T09:28:44.338Z,98921.31
2023-05-14T09:31:11.460Z,98922.66
2023-05-14T09:33:38.194Z,98922.03
2023-05-14T09:36:05.654Z,98919.59
2023-05-14T09:38:32.837Z,98916.38
2023-05-14T09:41:00.238Z,98917.25
2023-05-14T09:43:26.942Z,98914.19
2023-05-14T09:45:54.039Z,98911.19
2023-05-14T09:48:22.443Z,98907.16
2023-05-14T09:50:49.695Z,98902.88
2023-05-14T09:53:17.695Z,98895.75
2023-05-14T09:55:45.290Z,98884.50
2023-05-14T09:58:14.403Z,98890.06
2023-05-14T10:00:44.560Z,98886.38
2023-05-14T10:03:13.259Z,98886.91
2023-05-14T10:05:41.457Z,98882.78
2023-05-14T10:08:35.225Z,98872.56
2023-05-14T10:11:04.720Z,98879.63
2023-05-14T10:13:33.673Z,98879.31
2023-05-14T10:16:02.598Z,98872.84
2023-05-14T10:18:31.190Z,98861.75
2023-05-14T10:21:05.608Z,98859.66
2023-05-14T10:23:32.759Z,98852.50
2023-05-14T10:25:59.880Z,98856.78
2023-05-14T10:28:27.145Z,98847.91
2023-05-14T10:30:54.506Z,98845.91
2023-05-14T10:33:21.367Z,98846.34
2023-05-14T10:35:59.799Z,98843.81
2023-05-14T10:38:33.684Z,98842.38
2023-05-14T10:41:21.670Z,98853.00
2023-05-14T10:43:48.445Z,98842.06
2023-05-14T10:46:15.594Z,98842.28
2023-05-14T10:48:43.225Z,98844.63
2023-05-14T10:51:10.930Z,98849.53
2023-05-14T10:53:39.571Z,98850.16
2023-05-14T10:56:08.025Z,98843.66
2023-05-14T10:58:38.449Z,98847.91
2023-05-14T11:01:06.744Z,98842.00
2023-05-14T11:03:38.560Z,98844.34
2023-05-14T11:06:05.742Z,98836.06
2023-05-14T11:08:32.448Z,98836.06
2023-05-14T11:10:59.730Z,98829.72
2023-05-14T11:13:26.682Z,98832.75
2023-05-14T11:15:53.987Z,98834.69
2023-05-14T11:18:31.036Z,98830.47
2023-05-14T11:21:01.611Z,98830.47
2023-05-14T11:23:28.679Z,98827.06
2023-05-14T11:25:56.398Z,98827.06
2023-05-14T11:28:23.631Z,98827.75
2023-05-14T11:30:50.864Z,98817.97
2023-05-14T11:33:17.872Z,98818.41
2023-05-14T11:35:46.501Z,98821.56
2023-05-14T11:38:19.496Z,98819.03
2023-05-14T11:40:56.153Z,98808.47
2023-05-14T11:43:23.875Z,98799.13
2023-05-14T11:45:52.272Z,98799.13
2023-05-14T11:48:19.965Z,98801.88
2023-05-14T11:50:51.428Z,98808.69
2023-05-14T11:53:29.707Z,98795.13
2023-05-14T11:55:59.602Z,98794.03
2023-05-14T11:58:26.435Z,98793.41
2023-05-14T12:00:53.634Z,98788.53
2023-05-14T12:03:26.412Z,98787.06
2023-05-14T12:06:00.803Z,98787.91
2023-05-14T12:08:31.383Z,98784.94
2023-05-14T12:10:59.411Z,98787.06
2023-05-14T12:13:29.846Z,98774.97
2023-05-14T12:15:58.070Z,98780.47
2023-05-14T12:18:25.690Z,98776.03
2023-05-14T12:20:52.975Z,98774.97
2023-05-14T12:23:46.213Z,98769.03
2023-05-14T12:26:13.334Z,98766.72
2023-05-14T12:28:43.649Z,98763.31
2023-05-14T12:31:10.972Z,98763.31
2023-05-14T12:33:37.800Z,98756.53
2023-05-14T12:36:20.516Z,98754.22
2023-05-14T12:38:47.823Z,98753.59
2023-05-14T12:41:14.803Z,98745.31
2023-05-14T12:43:44.793Z,98754.22
2023-05-14T12:46:11.918Z,98748.06
2023-05-14T12:48:38.636Z,98750.16
2023-05-14T12:51:06.289Z,98744.44
2023-05-14T12:53:33.935Z,98737.47
2023-05-14T12:56:01.024Z,98739.59
2023-05-14T12:58:27.755Z,98737.00
2023-05-14T13:00:54.850Z,98737.69
2023-05-14T13:03:21.690Z,98728.75
2023-05-14T13:05:48.729Z,98730.63
2023-05-14T13:08:17.820Z,98730.88
2023-05-14T13:10:45.183Z,98719.19
2023-05-14T13:13:11.974Z,98721.31
2023-05-14T13:15:39.055Z,98722.34
2023-05-14T13:18:05.981Z,98721.31
2023-05-14T13:20:33.781Z,98713.03
2023-05-14T13:23:00.694Z,98710.94
2023-05-14T13:25:28.022Z,98702.66
2023-05-14T13:27:55.166Z,98706.91
2023-05-14T13:30:22.579Z,98700.56
2023-05-14T13:32:49.458Z,98697.38
2023-05-14T13:35:16.682Z,98694.81
2023-05-14T13:37:43.729Z,98695.47
2023-05-14T13:40:11.301Z,98686.34
2023-05-14T13:42:39.883Z,98678.53
2023-05-14T13:45:07.581Z,98660.94
2023-05-14T13:47:34.442Z,98655.44
2023-05-14T13:50:01.583Z,98661.34
2023-05-14T13:52:28.462Z,98662.66
2023-05-14T13:54:56.525Z,98673.88
2023-05-14T13:57:23.371Z,98670.28
2023-05-14T13:59:50.465Z,98673.22
2023-05-14T14:02:17.831Z,98671.53
2023-05-14T14:04:45.027Z,98661.75
2023-05-14T14:07:11.840Z,98653.94
2023-05-14T14:09:38.962Z,98646.53
2023-05-14T14:12:06.227Z,98638.91
2023-05-14T14:14:33.381Z,98634.03
2023-05-14T14:17:00.158Z,98638.91
2023-05-14T14:19:27.338Z,98634.47
2023-05-14T14:21:54.184Z,98630.22
2023-05-14T14:24:21.319Z,98625.34
2023-05-14T14:26:48.694Z,98627.25
2023-05-14T14:29:15.760Z,98622.78
2023-05-14T14:31:44.507Z,98619.00
2023-05-14T14:34:11.621Z,98618.16
2023-05-14T14:36:38.464Z,98607.75
2023-05-14T14:39:05.875Z,98605.00
2023-05-14T14:41:32.626Z,98604.38
2023-05-14T14:43:59.833Z,98596.94
2023-05-14T14:46:27.025Z,98589.75
2023-05-14T14:48:54.245Z,98589.31
2023-05-14T14:51:21.190Z,98581.06
2023-05-14T14:53:48.329Z,98573.22
2023-05-14T14:56:15.688Z,98566.25
2023-05-14T14:58:42.892Z,98577.44
2023-05-14T15:01:09.818Z,98574.69
2023-05-14T15:03:37.071Z,98573.19
2023-05-14T15:06:04.182Z,98561.97
2023-05-14T15:08:31.424Z,98565.81
2023-05-14T15:10:59.371Z,98566.41
2023-05-14T15:13:27.174Z,98563.88
2023-05-14T15:15:54.070Z,98558.16
2023-05-14T15:18:22.959Z,98549.69
2023-05-14T15:20:50.048Z,98544.59
2023-05-14T15:23:17.312Z,98538.66
2023-05-14T15:25:44.355Z,98541.38
2023-05-14T15:28:11.579Z,98535.44
2023-05-14T15:30:38.417Z,98536.06
2023-05-14T15:33:07.426Z,98527.16
2023-05-14T15:35:34.278Z,98524.81
2023-05-14T15:38:01.355Z,98526.06
2023-05-14T15:40:28.247Z,98523.53
2023-05-14T15:42:55.422Z,98516.75
2023-05-14T15:45:22.259Z,98519.72
2023-05-14T15:47:49.705Z,98503.63
2023-05-14T15:50:16.466Z,98503.00
2023-05-14T15:52:43.804Z,98498.75
2023-05-14T15:55:10.878Z,98487.09
2023-05-14T15:57:37.924Z,98486.69
2023-05-14T16:00:14.426Z,98487.97
2023-05-14T16:02:41.590Z,98492.16
2023-05-14T16:05:08.738Z,98493.22
2023-05-14T16:07:36.405Z,98490.88
2023-05-14T16:10:03.652Z,98493.41
2023-05-14T16:12:30.911Z,98489.16
2023-05-14T16:14:57.800Z,98485.13
2023-05-14T16:17:26.234Z,98475.38
2023-05-14T16:19:54.646Z,98478.31
2023-05-14T16:22:23.436Z,98484.22
2023-05-14T16:24:50.206Z,98483.13
2023-05-14T16:27:19.146Z,98487.09
2023-05-14T16:29:46.059Z,98499.16
2023-05-14T16:32:13.425Z,98497.03
2023-05-14T16:34:40.663Z,98496.38
2023-05-14T16:37:08.154Z,98505.22
2023-05-14T16:39:34.960Z,98507.53
2023-05-14T16:42:02.051Z,98504.97
2023-05-14T16:44:30.249Z,98503.72
2023-05-14T16:46:57.417Z,98507.88
2023-05-14T16:49:24.357Z,98504.69
2023-05-14T16:51:51.483Z,98513.34
2023-05-14T16:54:18.331Z,98508.84
2023-05-14T16:56:49.395Z,98502.47
2023-05-14T16:59:16.472Z,98493.78
2023-05-14T17:01:43.986Z,98492.31
2023-05-14T17:04:10.888Z,98481.91
2023-05-14T17:06:38.052Z,98474.28
2023-05-14T17:09:05.267Z,98487.91
2023-05-14T17:11:32.578Z,98484.06
2023-05-14T17:13:59.276Z,98484.28
2023-05-14T17:16:27.214Z,98477.03
2023-05-14T17:18:56.519Z,98472.53
2023-05-14T17:21:23.822Z,98473.13
2023-05-14T17:23:50.783Z,98470.13
2023-05-14T17:26:17.878Z,98463.72
2023-05-14T17:28:46.204Z,98459.03
2023-05-14T17:31:13.337Z,98461.13
2023-05-14T17:33:40.237Z,98476.28
2023-05-14T17:36:07.569Z,98479.78
2023-05-14T17:38:34.796Z,98470.47
2023-05-14T17:41:02.146Z,98486.25
2023-05-14T17:43:29.044Z,98492.47
2023-05-14T17:45:56.312Z,98518.59
2023-05-14T17:48:24.122Z,98521.91
2023-05-14T17:50:54.062Z,98518.25
2023-05-14T17:53:21.190Z,98523.03
2023-05-14T17:55:48.594Z,98522.97
2023-05-14T17:58:16.221Z,98522.03
2023-05-14T18:00:43.816Z,98513.16
2023-05-14T18:03:11.314Z,98515.44
2023-05-14T18:05:38.767Z,98516.47
2023-05-14T18:08:06.777Z,98522.91
2023-05-14T18:10:34.082Z,98519.50
2023-05-14T18:13:00.944Z,98525.06
2023-05-14T18:15:28.158Z,98522.06
2023-05-14T18:17:55.086Z,98516.50
2023-05-14T18:20:22.886Z,98514.13
2023-05-14T18:22:50.723Z,98499.78
2023-05-14T18:25:20.777Z,98500.66
2023-05-14T18:27:48.193Z,98499.84
2023-05-14T18:30:15.718Z,98500.44
2023-05-14T18:32:44.173Z,98491.06
2023-05-14T18:35:12.240Z,98496.06
2023-05-14T18:37:39.343Z,98499.00
2023-05-14T18:40:09.008Z,98502.09
2023-05-14T18:42:36.118Z,98497.22
2023-05-14T18:45:04.670Z,98501.16
2023-05-14T18:47:33.384Z,98506.53
2023-05-14T18:50:02.123Z,98505.88
2023-05-14T18:52:29.336Z,98507.25
2023-05-14T18:54:57.896Z,98515.66
2023-05-14T18:57:26.176Z,98522.53
2023-05-14T18:59:53.367Z,98520.16
2023-05-14T19:02:21.512Z,98517.16
2023-05-14T19:04:52.803Z,98517.50
2023-05-14T19:07:25.103Z,98533.81
2023-05-14T19:09:53.769Z,98533.63
2023-05-14T19:12:21.800Z,98531.44
2023-05-14T19:14:52.668Z,98529.94
2023-05-14T19:17:21.670Z,98536.13
2023-05-14T19:19:48.904Z,98539.91
2023-05-14T19:22:15.814Z,98533.06
2023-05-14T19:24:42.978Z,98534.47
2023-05-14T19:27:10.095Z,98527.47
2023-05-14T19:29:37.258Z,98526.16
2023-05-14T19:32:06.208Z,98526.50
2023-05-14T19:34:33.392Z,98527.72
2023-05-14T19:37:00.614Z,98534.41
2023-05-14T19:39:27.780Z,98533.22
2023-05-14T19:41:54.653Z,98533.09
2023-05-14T19:44:21.782Z,98531.41
2023-05-14T19:46:48.746Z,98525.28
2023-05-14T19:49:15.929Z,98525.28
2023-05-14T19:51:42.862Z,98523.44
2023-05-14T19:54:10.040Z,98517.97
2023-05-14T19:56:36.913Z,98520.22
2023-05-14T19:59:07.027Z,98515.78
2023-05-14T20:01:34.846Z,98515.66
2023-05-14T20:04:02.404Z,98512.06
2023-05-14T20:06:29.969Z,98505.25
2023-05-14T20:08:58.214Z,98499.31
2023-05-14T20:11:24.986Z,98502.38
2023-05-14T20:13:52.084Z,98488.94
2023-05-14T20:16:19.034Z,98487.59
2023-05-14T20:18:48.164Z,98468.50
2023-05-14T20:21:15.007Z,98466.25
2023-05-14T20:23:42.251Z,98459.47
2023-05-14T20:26:09.223Z,98445.47
2023-05-14T20:28:36.457Z,98439.34
2023-05-14T20:31:04.141Z,98421.63
2023-05-14T20:33:31.413Z,98407.47
2023-05-14T20:35:58.330Z,98415.84
2023-05-14T20:38:29.705Z,98404.59
2023-05-14T20:40:56.556Z,98399.69
2023-05-14T20:43:23.783Z,98392.16
2023-05-14T20:45:50.596Z,98384.72
2023-05-14T20:48:17.802Z,98369.22
2023-05-14T20:50:44.699Z,98353.31
2023-05-14T20:53:11.835Z,98355.56
2023-05-14T20:55:41.229Z,98344.84
2023-05-14T20:58:08.662Z,98336.16
2023-05-14T21:00:35.465Z,98333.78
2023-05-14T21:03:02.718Z,98331.22
2023-05-14T21:05:29.661Z,98324.63
2023-05-14T21:07:56.774Z,98329.25
2023-05-14T21:10:23.946Z,98318.84
2023-05-14T21:12:52.344Z,98319.38
2023-05-14T21:15:19.108Z,98316.84
2023-05-14T21:17:46.140Z,98310.72
2023-05-14T21:20:15.429Z,98314.63
2023-05-14T21:22:42.508Z,98309.44
2023-05-14T21:25:09.703Z,98304.50
2023-05-14T21:27:37.049Z,98302.63
2023-05-14T21:30:04.077Z,98312.19
2023-05-14T21:32:31.158Z,98300.94
2023-05-14T21:34:57.959Z,98300.94
2023-05-14T21:37:25.006Z,98291.38
2023-05-14T21:39:51.697Z,98290.44
2023-05-14T21:42:20.959Z,98286.66
2023-05-14T21:44:47.807Z,98277.66
2023-05-14T21:47:15.340Z,98271.00
2023-05-14T21:49:42.476Z,98263.53
2023-05-14T21:52:09.222Z,98262.00
2023-05-14T21:54:36.232Z,98260.28
2023-05-14T21:57:03.036Z,98252.66
2023-05-14T21:59:30.031Z,98258.41
2023-05-14T22:02:06.972Z,98273.09
2023-05-14T22:04:35.359Z,98265.97
2023-05-14T22:07:02.260Z,98260.00
2023-05-14T22:09:30.387Z,98252.69
2023-05-14T22:11:57.804Z,98249.97
2023-05-14T22:14:26.564Z,98245.56
2023-05-14T22:16:53.491Z,98252.00
2023-05-14T22:19:20.543Z,98244.22
2023-05-14T22:21:47.293Z,98232.78
2023-05-14T22:24:14.346Z,98229.25
2023-05-14T22:26:41.055Z,98233.00
2023-05-14T22:29:08.123Z,98241.00
2023-05-14T22:31:34.862Z,98255.19
2023-05-14T22:34:01.866Z,98260.78
2023-05-14T22:36:28.558Z,98255.19
2023-05-14T22:38:55.652Z,98250.59
2023-05-14T22:41:22.334Z,98233.72
2023-05-14T22:43:49.502Z,98225.91
2023-05-14T22:46:16.283Z,98227.09
2023-05-14T22:48:43.376Z,98213.31
2023-05-14T22:51:10.116Z,98202.09
2023-05-14T22:53:37.185Z,98201.91
2023-05-14T22:56:04.154Z,98196.97
2023-05-14T22:58:31.169Z,98187.47
2023-05-14T23:00:57.885Z,98185.75
2023-05-14T23:03:24.908Z,98191.19
2023-05-14T23:05:52.148Z,98187.97
2023-05-14T23:08:19.226Z,98172.84
2023-05-14T23:10:45.908Z,98173.88
2023-05-14T23:13:12.932Z,98176.25
2023-05-14T23:15:39.728Z,98177.28
2023-05-14T23:18:07.807Z,98170.81
2023-05-14T23:20:34.705Z,98181.03
2023-05-14T23:23:01.722Z,98171.31
2023-05-14T23:25:28.709Z,98160.09
2023-05-14T23:27:55.769Z,98163.16
2023-05-14T23:30:22.500Z,98159.59
2023-05-14T23:32:49.602Z,98146.69
2023-05-14T23:35:16.404Z,98137.34
2023-05-14T23:37:47.208Z,98121.84
2023-05-14T23:40:14.293Z,98114.88
2023-05-14T23:42:41.376Z,98106.56
2023-05-14T23:45:08.593Z,98097.03
2023-05-14T23:47:35.782Z,98087.53
2023-05-14T23:50:02.920Z,98084.81
2023-05-14T23:52:29.897Z,98086.34
2023-05-14T23:54:56.607Z,98084.47
2023-05-14T23:57:23.573Z,98079.38
2023-05-14T23:59:50.451Z,98079.56
